createdAt,value
2017-11-08T00:00:56.124Z,0
2017-11-08T00:01:56.128Z,0
2017-11-08T00:02:56.495Z,0
2017-11-08T00:03:56.502Z,0
2017-11-08T00:05:10.806Z,0
2017-11-08T00:05:56.206Z,0
2017-11-08T00:06:55.921Z,0
2017-11-08T00:07:55.919Z,0
2017-11-08T00:08:55.932Z,0
2017-11-08T00:09:56.603Z,0
2017-11-08T00:10:56.293Z,0
2017-11-08T00:12:56.330Z,0
2017-11-08T00:13:55.714Z,0
2017-11-08T00:14:56.689Z,0
2017-11-08T00:15:56.386Z,0
2017-11-08T00:16:56.417Z,0
2017-11-08T00:17:56.102Z,0
2017-11-08T00:18:56.753Z,0
2017-11-08T00:19:56.468Z,0
2017-11-08T00:21:11.404Z,0
2017-11-08T00:21:56.822Z,0
2017-11-08T00:23:11.130Z,0
2017-11-08T00:23:56.514Z,0
2017-11-08T00:25:56.897Z,0
2017-11-08T00:26:56.265Z,0
2017-11-08T00:27:56.912Z,0
2017-11-08T00:28:56.955Z,0
2017-11-08T00:29:56.669Z,0
2017-11-08T00:30:56.638Z,0
2017-11-08T00:31:56.997Z,0
2017-11-08T00:32:57.027Z,0
2017-11-08T00:33:56.389Z,0
2017-11-08T00:34:57.049Z,0
2017-11-08T00:35:56.762Z,0
2017-11-08T00:37:11.369Z,0
2017-11-08T00:37:57.104Z,0
2017-11-08T00:38:57.157Z,0
2017-11-08T00:39:56.828Z,0
2017-11-08T00:40:56.509Z,0
2017-11-08T00:41:57.177Z,0
2017-11-08T00:42:57.184Z,0
2017-11-08T00:44:56.894Z,0
2017-11-08T00:46:11.542Z,0
2017-11-08T00:47:11.869Z,0
2017-11-08T00:47:57.328Z,0
2017-11-08T00:48:56.684Z,0
2017-11-08T00:49:56.685Z,0
2017-11-08T00:51:11.985Z,0
2017-11-08T00:52:26.575Z,0
2017-11-08T00:53:12.000Z,0
2017-11-08T00:53:56.436Z,0
2017-11-08T00:54:57.104Z,0
2017-11-08T00:55:57.426Z,0
2017-11-08T00:56:57.126Z,0
2017-11-08T00:57:57.137Z,0
2017-11-08T00:59:11.780Z,0
2017-11-08T00:59:57.515Z,0
2017-11-08T01:01:12.154Z,0
2017-11-08T01:01:57.222Z,0
2017-11-08T01:02:56.924Z,0
2017-11-08T01:03:57.263Z,0
2017-11-08T01:04:57.623Z,0
2017-11-08T01:05:57.602Z,0
2017-11-08T01:06:57.618Z,0
2017-11-08T01:08:11.951Z,0
2017-11-08T01:08:57.666Z,0
2017-11-08T01:09:57.701Z,0
2017-11-08T01:11:12.328Z,0
2017-11-08T01:11:56.772Z,0
2017-11-08T01:12:57.432Z,0
2017-11-08T01:13:57.425Z,0
2017-11-08T01:14:57.797Z,0
2017-11-08T01:15:56.844Z,0
2017-11-08T01:16:57.174Z,0
2017-11-08T01:17:57.187Z,0
2017-11-08T01:18:57.206Z,0
2017-11-08T01:19:57.859Z,0
2017-11-08T01:20:57.560Z,0
2017-11-08T01:21:57.266Z,0
2017-11-08T01:22:57.274Z,0
2017-11-08T01:24:12.229Z,0
2017-11-08T01:24:57.643Z,0
2017-11-08T01:25:57.657Z,0
2017-11-08T01:26:57.664Z,0
2017-11-08T01:27:57.680Z,0
2017-11-08T01:28:57.708Z,0
2017-11-08T01:29:58.057Z,0
2017-11-08T01:30:57.748Z,0
2017-11-08T01:31:58.091Z,0
2017-11-08T01:32:57.776Z,0
2017-11-08T01:33:57.800Z,0
2017-11-08T01:34:57.487Z,0
2017-11-08T01:35:57.840Z,0
2017-11-08T01:36:57.861Z,0
2017-11-08T01:37:57.866Z,0
2017-11-08T01:38:58.207Z,0
2017-11-08T01:40:12.861Z,0
2017-11-08T01:40:57.908Z,0
2017-11-08T01:42:12.528Z,0
2017-11-08T01:43:58.294Z,0
2017-11-08T01:44:57.974Z,0
2017-11-08T01:45:58.005Z,0
2017-11-08T01:46:58.384Z,0
2017-11-08T01:48:12.973Z,0
2017-11-08T01:48:58.083Z,0
2017-11-08T01:50:12.679Z,0
2017-11-08T01:50:58.411Z,0
2017-11-08T01:51:58.437Z,0
2017-11-08T01:52:58.443Z,0
2017-11-08T01:54:13.095Z,0
2017-11-08T01:54:57.839Z,0
2017-11-08T01:56:12.476Z,0
2017-11-08T01:56:58.205Z,0
2017-11-08T01:58:12.828Z,0
2017-11-08T01:58:58.593Z,0
2017-11-08T01:59:58.582Z,0
2017-11-08T02:01:12.884Z,0
2017-11-08T02:01:58.618Z,0
2017-11-08T02:03:13.244Z,0
2017-11-08T02:04:58.334Z,0
2017-11-08T02:05:58.354Z,0
2017-11-08T02:06:58.051Z,0
2017-11-08T02:07:58.732Z,0
2017-11-08T02:08:58.745Z,0
2017-11-08T02:09:58.139Z,0
2017-11-08T02:10:58.455Z,0
2017-11-08T02:12:13.392Z,0
2017-11-08T02:13:13.093Z,0
2017-11-08T02:13:58.493Z,0
2017-11-08T02:14:58.860Z,0
2017-11-08T02:16:13.470Z,0
2017-11-08T02:16:58.895Z,0
2017-11-08T02:17:58.580Z,0
2017-11-08T02:18:58.936Z,0
2017-11-08T02:19:58.300Z,0
2017-11-08T02:20:58.635Z,0
2017-11-08T02:21:57.996Z,0
2017-11-08T02:22:59.010Z,0
2017-11-08T02:24:13.278Z,0
2017-11-08T02:24:58.686Z,0
2017-11-08T02:26:13.323Z,0
2017-11-08T02:27:13.327Z,0
2017-11-08T02:28:12.714Z,0
2017-11-08T02:28:59.096Z,0
2017-11-08T02:30:13.373Z,0
2017-11-08T02:30:58.796Z,0
2017-11-08T02:32:13.424Z,0
2017-11-08T02:32:58.521Z,0
2017-11-08T02:34:13.464Z,0
2017-11-08T02:34:58.240Z,0
2017-11-08T02:35:59.207Z,0
2017-11-08T02:36:59.239Z,0
2017-11-08T02:37:58.290Z,0
2017-11-08T02:38:58.301Z,0
2017-11-08T02:39:58.620Z,0
2017-11-08T02:40:59.312Z,0
2017-11-08T02:42:13.926Z,0
2017-11-08T02:42:59.019Z,0
2017-11-08T02:43:59.349Z,0
2017-11-08T02:44:59.353Z,0
2017-11-08T02:45:58.412Z,0
2017-11-08T02:46:59.106Z,0
2017-11-08T02:47:59.107Z,0
2017-11-08T02:49:13.717Z,0
2017-11-08T02:49:59.444Z,0
2017-11-08T02:50:58.509Z,0
2017-11-08T02:51:59.172Z,0
2017-11-08T02:52:58.851Z,0
2017-11-08T02:53:59.524Z,0
2017-11-08T02:54:59.208Z,0
2017-11-08T02:55:58.913Z,0
2017-11-08T02:56:59.578Z,0
2017-11-08T02:57:59.252Z,0
2017-11-08T02:59:14.219Z,0
2017-11-08T02:59:59.651Z,0
2017-11-08T03:01:59.019Z,0
2017-11-08T03:02:59.666Z,0
2017-11-08T03:03:59.672Z,0
2017-11-08T03:04:59.396Z,0
2017-11-08T03:05:59.399Z,0
2017-11-08T03:07:59.131Z,0
2017-11-08T03:08:59.803Z,0
2017-11-08T03:09:59.137Z,0
2017-11-08T03:10:59.507Z,0
2017-11-08T03:12:14.127Z,0
2017-11-08T03:13:58.885Z,0
2017-11-08T03:15:14.486Z,0
2017-11-08T03:16:14.509Z,0
2017-11-08T03:16:59.628Z,0
2017-11-08T03:18:14.224Z,0
2017-11-08T03:18:59.634Z,0
2017-11-08T03:19:59.989Z,0
2017-11-08T03:20:59.342Z,0
2017-11-08T03:21:59.694Z,0
2017-11-08T03:22:59.715Z,0
2017-11-08T03:24:13.680Z,0
2017-11-08T03:24:59.733Z,0
2017-11-08T03:25:59.787Z,0
2017-11-08T03:27:14.692Z,0
2017-11-08T03:27:59.482Z,0
2017-11-08T03:28:59.784Z,0
2017-11-08T03:29:59.499Z,0
2017-11-08T03:31:14.458Z,0
2017-11-08T03:31:59.880Z,0
2017-11-08T03:34:00.226Z,0
2017-11-08T03:35:14.848Z,0
2017-11-08T03:36:14.534Z,0
2017-11-08T03:36:59.636Z,0
2017-11-08T03:39:00.296Z,0
2017-11-08T03:39:59.994Z,0
2017-11-08T03:41:00.008Z,0
2017-11-08T03:42:00.017Z,0
2017-11-08T03:43:00.364Z,0
2017-11-08T03:44:00.080Z,0
2017-11-08T03:45:00.075Z,0
2017-11-08T03:45:59.780Z,0
2017-11-08T03:47:14.406Z,0
2017-11-08T03:48:00.149Z,0
2017-11-08T03:48:59.828Z,0
2017-11-08T03:50:14.790Z,0
2017-11-08T03:52:00.533Z,0
2017-11-08T03:54:00.254Z,0
2017-11-08T03:55:00.598Z,0
2017-11-08T03:55:59.633Z,0
2017-11-08T03:57:00.625Z,0
2017-11-08T03:58:00.311Z,0
2017-11-08T03:59:00.019Z,0
2017-11-08T03:59:59.711Z,0
2017-11-08T04:01:00.674Z,0
2017-11-08T04:02:29.265Z,0
2017-11-08T04:03:00.710Z,0
2017-11-08T04:05:00.765Z,0
2017-11-08T04:06:00.452Z,0
2017-11-08T04:07:15.094Z,0
2017-11-08T04:08:00.807Z,0
2017-11-08T04:09:00.513Z,0
2017-11-08T04:10:15.146Z,0
2017-11-08T04:11:00.217Z,0
2017-11-08T04:12:00.881Z,0
2017-11-08T04:13:00.264Z,0
2017-11-08T04:14:00.603Z,0
2017-11-08T04:15:00.610Z,0
2017-11-08T04:16:00.308Z,0
2017-11-08T04:17:15.576Z,0
2017-11-08T04:18:00.679Z,0
2017-11-08T04:19:00.984Z,0
2017-11-08T04:20:01.004Z,0
2017-11-08T04:21:01.072Z,0
2017-11-08T04:22:01.087Z,0
2017-11-08T04:23:00.446Z,0
2017-11-08T04:24:15.052Z,0
2017-11-08T04:25:00.791Z,0
2017-11-08T04:26:00.796Z,0
2017-11-08T04:27:01.141Z,0
2017-11-08T04:28:15.440Z,0
2017-11-08T04:31:00.568Z,0
2017-11-08T04:32:00.916Z,0
2017-11-08T04:33:00.929Z,0
2017-11-08T04:34:15.545Z,0
2017-11-08T04:35:00.952Z,0
2017-11-08T04:36:01.004Z,0
2017-11-08T04:37:01.336Z,0
2017-11-08T04:38:00.689Z,0
2017-11-08T04:39:01.025Z,0
2017-11-08T04:40:01.043Z,0
2017-11-08T04:41:01.372Z,0
2017-11-08T04:42:01.427Z,0
2017-11-08T04:43:01.109Z,0
2017-11-08T04:44:01.460Z,0
2017-11-08T04:46:01.489Z,0
2017-11-08T04:47:01.175Z,0
2017-11-08T04:48:01.533Z,0
2017-11-08T04:49:01.537Z,0
2017-11-08T04:50:15.822Z,0
2017-11-08T04:51:01.246Z,0
2017-11-08T04:52:01.582Z,0
2017-11-08T04:53:01.275Z,0
2017-11-08T04:54:01.306Z,0
2017-11-08T04:55:01.006Z,0
2017-11-08T04:56:01.339Z,0
2017-11-08T04:57:16.285Z,0
2017-11-08T04:59:01.376Z,0
2017-11-08T05:00:01.713Z,0
2017-11-08T05:01:01.413Z,0
2017-11-08T05:02:01.439Z,0
2017-11-08T05:03:01.790Z,0
2017-11-08T05:04:01.157Z,0
2017-11-08T05:05:01.791Z,0
2017-11-08T05:06:16.436Z,0
2017-11-08T05:07:01.528Z,0
2017-11-08T05:08:01.862Z,0
2017-11-08T05:09:01.875Z,0
2017-11-08T05:10:01.588Z,0
2017-11-08T05:11:01.619Z,0
2017-11-08T05:12:01.618Z,0
2017-11-08T05:13:02.014Z,0
2017-11-08T05:14:16.580Z,0
2017-11-08T05:15:01.665Z,0
2017-11-08T05:16:16.299Z,0
2017-11-08T05:17:01.388Z,0
2017-11-08T05:18:01.720Z,0
2017-11-08T05:19:02.055Z,0
2017-11-08T05:20:01.763Z,0
2017-11-08T05:21:02.096Z,0
2017-11-08T05:22:16.412Z,0
2017-11-08T05:23:16.762Z,0
2017-11-08T05:24:01.862Z,0
2017-11-08T05:25:02.152Z,0
2017-11-08T05:26:01.567Z,0
2017-11-08T05:27:01.879Z,0
2017-11-08T05:28:01.925Z,0
2017-11-08T05:29:02.240Z,0
2017-11-08T05:30:16.863Z,0
2017-11-08T05:31:02.291Z,0
2017-11-08T05:32:01.985Z,0
2017-11-08T05:33:16.601Z,0
2017-11-08T05:34:02.021Z,0
2017-11-08T05:35:16.951Z,0
2017-11-08T05:36:16.981Z,0
2017-11-08T05:38:01.757Z,0
2017-11-08T05:39:02.114Z,0
2017-11-08T05:40:16.731Z,0
2017-11-08T05:41:02.149Z,0
2017-11-08T05:42:02.165Z,0
2017-11-08T05:43:02.494Z,0
2017-11-08T05:44:16.804Z,0
2017-11-08T05:45:02.546Z,0
2017-11-08T05:47:16.520Z,0
2017-11-08T05:48:01.927Z,0
2017-11-08T05:50:02.305Z,0
2017-11-08T05:52:01.693Z,0
2017-11-08T05:53:02.702Z,0
2017-11-08T05:54:02.389Z,0
2017-11-08T05:55:02.704Z,0
2017-11-08T05:56:02.395Z,0
2017-11-08T05:57:02.086Z,0
2017-11-08T05:58:02.764Z,0
2017-11-08T05:59:02.774Z,0
2017-11-08T06:00:02.773Z,0
2017-11-08T06:01:02.491Z,0
2017-11-08T06:02:17.434Z,0
2017-11-08T06:03:02.534Z,0
2017-11-08T06:04:02.537Z,0
2017-11-08T06:05:02.576Z,0
2017-11-08T06:06:02.256Z,0
2017-11-08T06:07:02.909Z,0
2017-11-08T06:08:02.325Z,0
2017-11-08T06:09:17.230Z,0
2017-11-08T06:10:17.270Z,0
2017-11-08T06:11:02.348Z,0
2017-11-08T06:12:02.697Z,0
2017-11-08T06:13:02.706Z,0
2017-11-08T06:14:02.707Z,0
2017-11-08T06:15:02.759Z,5
2017-11-08T06:16:03.085Z,5
2017-11-08T06:17:03.126Z,5
2017-11-08T06:18:02.466Z,5
2017-11-08T06:19:02.804Z,5
2017-11-08T06:20:02.840Z,5
2017-11-08T06:21:17.764Z,5
2017-11-08T06:22:03.548Z,5
2017-11-08T06:23:02.881Z,5
2017-11-08T06:24:02.874Z,5
2017-11-08T06:25:17.514Z,5
2017-11-08T06:26:02.935Z,5
2017-11-08T06:27:03.300Z,10
2017-11-08T06:28:02.325Z,10
2017-11-08T06:29:02.991Z,10
2017-11-08T06:30:03.012Z,10
2017-11-08T06:31:03.025Z,10
2017-11-08T06:32:17.638Z,10
2017-11-08T06:33:03.040Z,10
2017-11-08T06:34:02.428Z,10
2017-11-08T06:35:03.116Z,10
2017-11-08T06:36:18.041Z,10
2017-11-08T06:37:02.791Z,10
2017-11-08T06:38:18.070Z,10
2017-11-08T06:39:03.458Z,10
2017-11-08T06:40:03.182Z,5
2017-11-08T06:41:32.719Z,5
2017-11-08T06:42:03.528Z,5
2017-11-08T06:43:02.909Z,5
2017-11-08T06:44:17.546Z,5
2017-11-08T06:45:02.953Z,5
2017-11-08T06:46:03.294Z,5
2017-11-08T06:47:02.967Z,5
2017-11-08T06:48:03.311Z,5
2017-11-08T06:49:03.347Z,5
2017-11-08T06:50:03.688Z,5
2017-11-08T06:51:03.718Z,5
2017-11-08T06:52:18.034Z,10
2017-11-08T06:53:03.096Z,10
2017-11-08T06:54:03.748Z,10
2017-11-08T06:55:03.443Z,10
2017-11-08T06:56:18.051Z,10
2017-11-08T06:57:32.672Z,10
2017-11-08T06:58:03.509Z,10
2017-11-08T06:59:03.527Z,10
2017-11-08T07:00:03.223Z,15
2017-11-08T07:01:03.860Z,15
2017-11-08T07:02:03.887Z,15
2017-11-08T07:03:02.914Z,15
2017-11-08T07:04:03.593Z,20
2017-11-08T07:05:03.301Z,20
2017-11-08T07:06:03.950Z,20
2017-11-08T07:07:18.263Z,30
2017-11-08T07:08:03.349Z,35
2017-11-08T07:09:18.599Z,40
2017-11-08T07:10:03.694Z,50
2017-11-08T07:11:04.040Z,55
2017-11-08T07:12:33.270Z,65
2017-11-08T07:13:03.438Z,65
2017-11-08T07:14:03.774Z,65
2017-11-08T07:15:04.109Z,65
2017-11-08T07:16:18.736Z,70
2017-11-08T07:17:03.814Z,70
2017-11-08T07:18:03.517Z,75
2017-11-08T07:19:04.187Z,75
2017-11-08T07:20:18.483Z,75
2017-11-08T07:21:04.234Z,75
2017-11-08T07:22:18.515Z,80
2017-11-08T07:23:04.266Z,85
2017-11-08T07:24:03.963Z,90
2017-11-08T07:25:03.975Z,90
2017-11-08T07:26:03.974Z,90
2017-11-08T07:27:03.696Z,95
2017-11-08T07:28:04.346Z,95
2017-11-08T07:29:33.587Z,95
2017-11-08T07:30:18.671Z,95
2017-11-08T07:31:04.068Z,95
2017-11-08T07:32:18.707Z,100
2017-11-08T07:33:04.433Z,100
2017-11-08T07:34:04.162Z,100
2017-11-08T07:36:03.868Z,100
2017-11-08T07:37:04.502Z,100
2017-11-08T07:38:04.536Z,105
2017-11-08T07:39:19.165Z,105
2017-11-08T07:40:03.932Z,100
2017-11-08T07:41:19.188Z,105
2017-11-08T07:42:18.893Z,110
2017-11-08T07:43:18.933Z,110
2017-11-08T07:44:18.933Z,110
2017-11-08T07:45:19.284Z,110
2017-11-08T07:46:04.685Z,110
2017-11-08T07:47:04.701Z,110
2017-11-08T07:48:04.450Z,115
2017-11-08T07:49:04.416Z,115
2017-11-08T07:50:04.456Z,115
2017-11-08T07:51:04.467Z,110
2017-11-08T07:52:04.472Z,110
2017-11-08T07:53:04.820Z,110
2017-11-08T07:54:04.188Z,110
2017-11-08T07:55:04.587Z,115
2017-11-08T07:56:19.471Z,115
2017-11-08T07:57:04.584Z,115
2017-11-08T07:58:04.899Z,115
2017-11-08T08:00:19.248Z,120
2017-11-08T08:01:04.657Z,120
2017-11-08T08:02:19.606Z,120
2017-11-08T08:03:04.690Z,120
2017-11-08T08:05:19.323Z,120
2017-11-08T08:06:04.416Z,115
2017-11-08T08:07:04.758Z,110
2017-11-08T08:08:04.794Z,105
2017-11-08T08:09:05.114Z,105
2017-11-08T08:10:04.496Z,110
2017-11-08T08:11:05.136Z,110
2017-11-08T08:12:04.858Z,110
2017-11-08T08:13:04.863Z,110
2017-11-08T08:14:05.222Z,110
2017-11-08T08:17:05.290Z,110
2017-11-08T08:18:05.311Z,110
2017-11-08T08:19:19.916Z,110
2017-11-08T08:20:04.693Z,105
2017-11-08T08:21:05.024Z,100
2017-11-08T08:22:05.047Z,105
2017-11-08T08:23:19.986Z,105
2017-11-08T08:24:04.760Z,110
2017-11-08T08:25:05.134Z,110
2017-11-08T08:26:05.122Z,115
2017-11-08T08:27:05.165Z,120
2017-11-08T08:28:04.506Z,115
2017-11-08T08:29:19.787Z,120
2017-11-08T08:30:05.194Z,120
2017-11-08T08:31:05.218Z,120
2017-11-08T08:32:19.852Z,120
2017-11-08T08:33:05.599Z,125
2017-11-08T08:34:05.597Z,130
2017-11-08T08:35:05.301Z,130
2017-11-08T08:36:04.994Z,120
2017-11-08T08:37:34.227Z,110
2017-11-08T08:38:05.354Z,105
2017-11-08T08:39:05.380Z,105
2017-11-08T08:40:19.997Z,105
2017-11-08T08:41:05.396Z,100
2017-11-08T08:42:05.423Z,100
2017-11-08T08:43:05.142Z,100
2017-11-08T08:44:05.783Z,100
2017-11-08T08:45:05.475Z,100
2017-11-08T08:46:05.164Z,100
2017-11-08T08:47:20.133Z,90
2017-11-08T08:48:05.878Z,90
2017-11-08T08:49:05.231Z,90
2017-11-08T08:50:05.256Z,90
2017-11-08T08:52:20.563Z,95
2017-11-08T08:53:05.636Z,90
2017-11-08T08:54:05.979Z,85
2017-11-08T08:55:06.002Z,85
2017-11-08T08:56:05.702Z,80
2017-11-08T08:57:05.385Z,80
2017-11-08T08:58:05.740Z,80
2017-11-08T08:59:06.076Z,80
2017-11-08T09:00:05.796Z,80
2017-11-08T09:01:06.119Z,80
2017-11-08T09:02:20.755Z,80
2017-11-08T09:03:05.816Z,80
2017-11-08T09:04:05.525Z,80
2017-11-08T09:06:06.224Z,85
2017-11-08T09:07:05.921Z,85
2017-11-08T09:08:20.846Z,90
2017-11-08T09:09:05.941Z,85
2017-11-08T09:10:20.913Z,85
2017-11-08T09:11:05.988Z,85
2017-11-08T09:12:05.997Z,90
2017-11-08T09:13:06.045Z,90
2017-11-08T09:14:06.030Z,85
2017-11-08T09:15:06.077Z,85
2017-11-08T09:16:06.062Z,85
2017-11-08T09:17:06.114Z,85
2017-11-08T09:18:06.444Z,85
2017-11-08T09:19:20.728Z,85
2017-11-08T09:20:20.757Z,90
2017-11-08T09:21:06.192Z,90
2017-11-08T09:22:06.516Z,90
2017-11-08T09:23:06.513Z,90
2017-11-08T09:24:20.827Z,95
2017-11-08T09:25:06.576Z,95
2017-11-08T09:26:06.259Z,105
2017-11-08T09:27:06.270Z,105
2017-11-08T09:28:05.973Z,105
2017-11-08T09:29:06.664Z,110
2017-11-08T09:30:06.340Z,110
2017-11-08T09:31:06.688Z,110
2017-11-08T09:32:06.075Z,115
2017-11-08T09:33:21.310Z,125
2017-11-08T09:34:06.098Z,125
2017-11-08T09:35:21.365Z,125
2017-11-08T09:36:06.439Z,125
2017-11-08T09:37:21.383Z,130
2017-11-08T09:38:06.813Z,130
2017-11-08T09:39:21.451Z,130
2017-11-08T09:40:06.856Z,125
2017-11-08T09:41:06.887Z,120
2017-11-08T09:42:06.565Z,120
2017-11-08T09:43:21.522Z,120
2017-11-08T09:44:06.953Z,120
2017-11-08T09:45:06.304Z,120
2017-11-08T09:46:06.326Z,120
2017-11-08T09:47:06.331Z,115
2017-11-08T09:48:06.342Z,125
2017-11-08T09:50:06.745Z,130
2017-11-08T09:51:21.659Z,130
2017-11-08T09:52:06.793Z,130
2017-11-08T09:53:06.472Z,135
2017-11-08T09:54:06.155Z,130
2017-11-08T09:55:06.822Z,125
2017-11-08T09:56:06.857Z,125
2017-11-08T09:57:06.862Z,120
2017-11-08T09:58:07.214Z,115
2017-11-08T09:59:21.866Z,110
2017-11-08T10:00:07.043Z,110
2017-11-08T10:01:21.873Z,105
2017-11-08T10:02:21.897Z,100
2017-11-08T10:03:07.360Z,105
2017-11-08T10:04:07.323Z,110
2017-11-08T10:05:07.013Z,110
2017-11-08T10:06:07.041Z,105
2017-11-08T10:07:21.658Z,105
2017-11-08T10:08:21.709Z,105
2017-11-08T10:09:07.234Z,105
2017-11-08T10:10:07.088Z,110
2017-11-08T10:13:06.941Z,110
2017-11-08T10:14:21.832Z,105
2017-11-08T10:16:06.903Z,100
2017-11-08T10:17:22.197Z,100
2017-11-08T10:18:22.202Z,100
2017-11-08T10:19:07.609Z,100
2017-11-08T10:20:21.913Z,95
2017-11-08T10:21:07.311Z,95
2017-11-08T10:22:21.943Z,95
2017-11-08T10:23:07.049Z,90
2017-11-08T10:24:21.996Z,90
2017-11-08T10:25:07.754Z,90
2017-11-08T10:26:22.025Z,90
2017-11-08T10:27:22.048Z,90
2017-11-08T10:28:07.812Z,95
2017-11-08T10:29:22.404Z,95
2017-11-08T10:30:21.794Z,95
2017-11-08T10:31:21.801Z,100
2017-11-08T10:32:07.200Z,100
2017-11-08T10:33:07.558Z,95
2017-11-08T10:34:07.885Z,105
2017-11-08T10:35:07.615Z,110
2017-11-08T10:36:22.554Z,110
2017-11-08T10:37:21.921Z,110
2017-11-08T10:38:07.658Z,115
2017-11-08T10:39:07.699Z,120
2017-11-08T10:40:08.008Z,120
2017-11-08T10:41:07.709Z,120
2017-11-08T10:42:08.055Z,120
2017-11-08T10:43:08.081Z,110
2017-11-08T10:44:22.353Z,120
2017-11-08T10:45:08.090Z,120
2017-11-08T10:46:22.384Z,120
2017-11-08T10:47:07.486Z,115
2017-11-08T10:48:07.851Z,115
2017-11-08T10:49:07.874Z,110
2017-11-08T10:50:07.865Z,110
2017-11-08T10:51:08.198Z,110
2017-11-08T10:52:07.569Z,105
2017-11-08T10:53:22.529Z,105
2017-11-08T10:54:22.855Z,100
2017-11-08T10:55:22.556Z,100
2017-11-08T10:56:07.986Z,95
2017-11-08T10:57:07.973Z,90
2017-11-08T10:58:08.021Z,85
2017-11-08T10:59:08.033Z,90
2017-11-08T11:00:07.727Z,90
2017-11-08T11:01:22.687Z,100
2017-11-08T11:02:08.083Z,105
2017-11-08T11:03:08.484Z,105
2017-11-08T11:04:08.491Z,105
2017-11-08T11:06:23.081Z,105
2017-11-08T11:07:08.195Z,105
2017-11-08T11:08:23.134Z,105
2017-11-08T11:09:08.577Z,100
2017-11-08T11:10:23.185Z,100
2017-11-08T11:12:22.586Z,95
2017-11-08T11:13:08.283Z,95
2017-11-08T11:14:08.690Z,95
2017-11-08T11:15:08.383Z,90
2017-11-08T11:16:08.706Z,90
2017-11-08T11:18:08.427Z,90
2017-11-08T11:19:08.428Z,90
2017-11-08T11:20:08.778Z,90
2017-11-08T11:21:22.734Z,90
2017-11-08T11:22:08.828Z,90
2017-11-08T11:23:22.791Z,90
2017-11-08T11:24:08.530Z,90
2017-11-08T11:25:08.218Z,85
2017-11-08T11:26:38.099Z,85
2017-11-08T11:27:09.282Z,85
2017-11-08T11:28:23.542Z,80
2017-11-08T11:29:08.627Z,75
2017-11-08T11:30:08.633Z,75
2017-11-08T11:31:08.678Z,80
2017-11-08T11:32:08.661Z,75
2017-11-08T11:33:08.700Z,75
2017-11-08T11:34:23.021Z,70
2017-11-08T11:35:09.095Z,70
2017-11-08T11:36:23.367Z,70
2017-11-08T11:37:08.788Z,65
2017-11-08T11:38:08.520Z,65
2017-11-08T11:39:09.136Z,60
2017-11-08T11:40:23.777Z,60
2017-11-08T11:41:08.873Z,60
2017-11-08T11:42:38.421Z,60
2017-11-08T11:43:09.252Z,60
2017-11-08T11:44:09.246Z,65
2017-11-08T11:45:08.599Z,60
2017-11-08T11:46:09.273Z,65
2017-11-08T11:47:23.904Z,65
2017-11-08T11:48:08.705Z,65
2017-11-08T11:49:08.705Z,65
2017-11-08T11:51:08.731Z,70
2017-11-08T11:52:09.407Z,75
2017-11-08T11:53:09.099Z,75
2017-11-08T11:54:08.799Z,75
2017-11-08T11:55:09.141Z,80
2017-11-08T11:56:24.094Z,80
2017-11-08T11:58:08.870Z,80
2017-11-08T11:59:09.558Z,80
2017-11-08T12:00:23.836Z,80
2017-11-08T12:01:09.264Z,80
2017-11-08T12:02:09.601Z,80
2017-11-08T12:03:08.977Z,80
2017-11-08T12:04:09.303Z,75
2017-11-08T12:05:08.687Z,75
2017-11-08T12:06:09.369Z,75
2017-11-08T12:07:09.712Z,75
2017-11-08T12:08:24.334Z,75
2017-11-08T12:09:09.433Z,70
2017-11-08T12:10:09.124Z,70
2017-11-08T12:11:09.483Z,70
2017-11-08T12:12:24.416Z,70
2017-11-08T12:13:09.799Z,70
2017-11-08T12:14:09.860Z,65
2017-11-08T12:15:09.927Z,65
2017-11-08T12:16:09.220Z,65
2017-11-08T12:17:09.251Z,65
2017-11-08T12:18:24.189Z,65
2017-11-08T12:19:09.592Z,65
2017-11-08T12:20:09.634Z,60
2017-11-08T12:21:09.963Z,60
2017-11-08T12:22:38.871Z,60
2017-11-08T12:23:09.046Z,60
2017-11-08T12:24:09.367Z,60
2017-11-08T12:25:10.048Z,60
2017-11-08T12:26:24.683Z,60
2017-11-08T12:27:09.783Z,60
2017-11-08T12:28:10.129Z,60
2017-11-08T12:29:24.420Z,60
2017-11-08T12:30:11.555Z,60
2017-11-08T12:31:10.173Z,55
2017-11-08T12:32:10.197Z,55
2017-11-08T12:33:09.892Z,55
2017-11-08T12:34:10.251Z,55
2017-11-08T12:35:09.918Z,60
2017-11-08T12:36:09.952Z,60
2017-11-08T12:37:09.975Z,60
2017-11-08T12:39:09.682Z,60
2017-11-08T12:40:09.700Z,60
2017-11-08T12:42:09.758Z,60
2017-11-08T12:43:25.343Z,60
2017-11-08T12:44:09.752Z,60
2017-11-08T12:45:25.047Z,60
2017-11-08T12:46:10.119Z,60
2017-11-08T12:47:24.776Z,60
2017-11-08T12:48:10.493Z,60
2017-11-08T12:49:10.534Z,65
2017-11-08T12:50:10.204Z,65
2017-11-08T12:51:25.153Z,65
2017-11-08T12:52:10.263Z,65
2017-11-08T12:53:09.626Z,65
2017-11-08T12:54:10.273Z,65
2017-11-08T12:55:10.304Z,65
2017-11-08T12:56:09.698Z,65
2017-11-08T12:57:10.340Z,70
2017-11-08T12:58:10.708Z,70
2017-11-08T12:59:10.384Z,75
2017-11-08T13:00:10.399Z,75
2017-11-08T13:01:25.012Z,75
2017-11-08T13:02:25.039Z,75
2017-11-08T13:04:10.487Z,75
2017-11-08T13:05:25.096Z,75
2017-11-08T13:07:10.879Z,75
2017-11-08T13:09:10.892Z,75
2017-11-08T13:10:10.596Z,75
2017-11-08T13:11:10.949Z,75
2017-11-08T13:12:10.629Z,75
2017-11-08T13:13:10.342Z,75
2017-11-08T13:14:10.349Z,75
2017-11-08T13:15:25.003Z,75
2017-11-08T13:16:10.697Z,75
2017-11-08T13:17:25.664Z,70
2017-11-08T13:20:10.456Z,70
2017-11-08T13:21:10.482Z,65
2017-11-08T13:22:25.779Z,65
2017-11-08T13:24:10.856Z,65
2017-11-08T13:25:25.830Z,65
2017-11-08T13:26:10.604Z,60
2017-11-08T13:27:10.921Z,60
2017-11-08T13:28:10.609Z,55
2017-11-08T13:29:11.314Z,55
2017-11-08T13:30:10.997Z,55
2017-11-08T13:31:25.608Z,55
2017-11-08T13:32:25.642Z,50
2017-11-08T13:33:25.977Z,50
2017-11-08T13:34:11.061Z,50
2017-11-08T13:35:11.419Z,50
2017-11-08T13:36:11.429Z,50
2017-11-08T13:37:11.457Z,55
2017-11-08T13:38:10.809Z,50
2017-11-08T13:40:10.855Z,50
2017-11-08T13:41:11.212Z,50
2017-11-08T13:42:10.905Z,55
2017-11-08T13:43:11.231Z,55
2017-11-08T13:44:11.607Z,60
2017-11-08T13:45:11.293Z,60
2017-11-08T13:46:11.288Z,60
2017-11-08T13:47:11.333Z,55
2017-11-08T13:48:11.677Z,55
2017-11-08T13:49:11.672Z,55
2017-11-08T13:50:11.387Z,55
2017-11-08T13:51:11.736Z,50
2017-11-08T13:52:11.426Z,50
2017-11-08T13:54:26.060Z,50
2017-11-08T13:55:11.501Z,45
2017-11-08T13:56:11.182Z,45
2017-11-08T13:57:11.545Z,45
2017-11-08T13:58:11.528Z,45
2017-11-08T13:59:11.883Z,40
2017-11-08T14:00:11.253Z,40
2017-11-08T14:01:11.578Z,40
2017-11-08T14:02:11.940Z,40
2017-11-08T14:04:26.617Z,40
2017-11-08T14:05:11.024Z,40
2017-11-08T14:06:11.707Z,40
2017-11-08T14:07:11.378Z,35
2017-11-08T14:08:11.726Z,35
2017-11-08T14:09:12.079Z,35
2017-11-08T14:10:11.753Z,35
2017-11-08T14:11:11.462Z,35
2017-11-08T14:12:26.741Z,30
2017-11-08T14:13:11.504Z,30
2017-11-08T14:14:26.453Z,30
2017-11-08T14:15:11.856Z,30
2017-11-08T14:16:11.237Z,30
2017-11-08T14:17:12.219Z,25
2017-11-08T14:18:26.853Z,25
2017-11-08T14:19:12.001Z,25
2017-11-08T14:20:26.918Z,25
2017-11-08T14:21:12.320Z,20
2017-11-08T14:22:12.307Z,20
2017-11-08T14:23:26.947Z,20
2017-11-08T14:24:12.378Z,20
2017-11-08T14:25:12.083Z,15
2017-11-08T14:27:12.083Z,15
2017-11-08T14:28:12.112Z,15
2017-11-08T14:29:12.441Z,15
2017-11-08T14:30:12.154Z,15
2017-11-08T14:31:12.151Z,15
2017-11-08T14:32:27.118Z,10
2017-11-08T14:33:12.532Z,10
2017-11-08T14:34:12.224Z,10
2017-11-08T14:35:12.570Z,10
2017-11-08T14:36:26.530Z,10
2017-11-08T14:37:11.957Z,10
2017-11-08T14:38:27.256Z,10
2017-11-08T14:39:27.254Z,10
2017-11-08T14:40:27.262Z,10
2017-11-08T14:41:12.025Z,10
2017-11-08T14:42:12.060Z,10
2017-11-08T14:43:12.743Z,10
2017-11-08T14:44:12.430Z,10
2017-11-08T14:45:12.427Z,10
2017-11-08T14:46:12.458Z,10
2017-11-08T14:47:12.791Z,10
2017-11-08T14:48:26.773Z,10
2017-11-08T14:49:12.513Z,5
2017-11-08T14:50:12.873Z,5
2017-11-08T14:52:27.176Z,5
2017-11-08T14:53:12.254Z,5
2017-11-08T14:54:12.938Z,5
2017-11-08T14:56:12.005Z,5
2017-11-08T14:57:12.649Z,5
2017-11-08T14:58:12.667Z,5
2017-11-08T14:59:27.615Z,5
2017-11-08T15:00:12.395Z,5
2017-11-08T15:01:12.729Z,0
2017-11-08T15:02:27.376Z,0
2017-11-08T15:03:13.099Z,0
2017-11-08T15:04:27.716Z,0
2017-11-08T15:05:12.812Z,0
2017-11-08T15:06:13.160Z,0
2017-11-08T15:07:27.126Z,0
2017-11-08T15:09:13.225Z,0
2017-11-08T15:10:13.234Z,0
2017-11-08T15:11:13.261Z,0
2017-11-08T15:12:27.878Z,0
2017-11-08T15:13:13.303Z,0
2017-11-08T15:14:27.907Z,0
2017-11-08T15:15:13.001Z,0
2017-11-08T15:16:13.037Z,0
2017-11-08T15:17:27.978Z,0